Glendale, Minnesota
Current Conditions -  °F | °C
As of 7:53 PM on Saturday 20 Dec 2014 (Local Time) from KORB Reporting Station
Haze Haze  
Wind Chill: 19°   Ceiling: 700
Heat Index: 28°   Visibility: 5mi
Dew Point: 27°   Wind: 10mph
Humidity: 93%   Direction: 180°S
Pressure: 29.98"   Gusts: NA
Location:  48.1455°N, 92.8504°W
Report Text: KORB 210153Z AUTO 18009KT 152V212 5SM BR OVC007 M02/M03 A2998 RMK AO2
Loading
Personal Weather Stations






























Interactive Weather Map New forecast layout! Learn more

10-Day Weather Forecast

Advertisements
Track Severe Weather on mobile